Airshows


 

< 2017 >
September
Mon
Tue
Wed
Thu
Fri
Sat
Sun
August
August
August
August
1
2
3
4
5
6
7
8
9
10
11
12
13
14
15
16
17
18
19
20
21
22
23
24
25
26
27
28
29
30
October

London Heathrow Airport  (EGLL)

Available data for EGLL from the past 2 hours
LONDON/HEATHROW
Metar
EGLL 260150Z AUTO VRB03KT 6000 NCD 15/13 Q1021

01:50 UTC

Wind: ° 3kt

Visibility: 6000 m

Sky:

Temp: 15 deg C / 59 deg F

Dewpoint: 13 deg C / 55.4 deg F

Pressure: 1021 hPa

TAF
TAF EGLL 252252Z 2600/2706 04004KT 6000 SCT045 TEMPO 2600/2608 4000 BR PROB30 TEMPO 2603/2608 BKN004 BECMG 2608/2611 9999 PROB40 TEMPO 2608/2611 BKN012 BECMG 2621/2624 7000 BECMG 2700/2703 4000 BR PROB30 TEMPO 2703/2706 BKN004

Airshow 02a

Airshow 01a

lear45